< < Back
Terminal Aerodrome Forecast


Current Version              Previous Versions:   1  2  3  4  5  6  7  8  9  

Terminal Aerodrome Forecast

667
FTAK31 PAJN 211100
TAFAHN
TAF
PAHN 211138Z 2112/2212 30014KT P6SM OVC050
     FM211400 30012KT 6SM -RASN BKN025 OVC040
      TEMPO 2115/2119 4SM -SNRA BKN015 OVC025
     FM212000 31009KT 6SM -RA BR SCT015 BKN025 OVC040
     FM220000 31008KT 6SM -SNRA BR SCT015 OVC020
     FM220600 32008KT P6SM VCSH OVC030
      AMD LTD TO CLD VIS AND WIND=

Latest METAR

904
SAUS70 KWBC 211800 RRA
MTRAHN
METAR KAHN 211751Z AUTO VRB04KT 7SM CLR 17/M02 A3037 RMK AO2 SLPNO 6////
T01671022 TSNO


USA.gov is the U.S. government's official web portal to all federal, state and local government web resources and services.